createdAt,value
2023-02-03T00:02:09.435Z,2.10
2023-02-03T00:07:14.829Z,3.17
2023-02-03T00:12:17.670Z,0.80
2023-02-03T00:17:20.404Z,0.70
2023-02-03T00:22:24.539Z,2.83
2023-02-03T00:27:27.406Z,2.67
2023-02-03T00:32:30.640Z,0.40
2023-02-03T00:37:34.817Z,2.73
2023-02-03T00:42:37.647Z,2.07
2023-02-03T00:47:41.032Z,0.97
2023-02-03T00:52:45.581Z,0.77
2023-02-03T00:57:48.278Z,0.80
2023-02-03T01:02:50.999Z,1.37
2023-02-03T01:07:55.065Z,2.47
2023-02-03T01:12:58.222Z,0.70
2023-02-03T01:18:03.489Z,0.73
2023-02-03T01:23:07.561Z,1.40
2023-02-03T01:28:10.716Z,2.20
2023-02-03T01:33:13.488Z,2.93
2023-02-03T01:38:17.578Z,2.13
2023-02-03T01:43:34.311Z,0.80
2023-02-03T01:48:37.365Z,1.43
2023-02-03T01:53:41.566Z,1.20
2023-02-03T01:58:44.942Z,1.67
2023-02-03T02:03:52.249Z,1.70
2023-02-03T02:08:57.727Z,1.10
2023-02-03T02:14:03.163Z,1.40
2023-02-03T02:19:24.774Z,2.10
2023-02-03T02:24:51.203Z,1.47
2023-02-03T02:30:17.971Z,1.63
2023-02-03T02:35:34.338Z,1.53
2023-02-03T02:40:39.795Z,2.30
2023-02-03T02:45:47.615Z,4.17
2023-02-03T02:50:54.693Z,2.70
2023-02-03T02:55:58.255Z,2.90
2023-02-03T03:01:01.220Z,3.40
2023-02-03T03:06:08.299Z,4.23
2023-02-03T03:11:14.495Z,3.93
2023-02-03T03:16:18.051Z,4.07
2023-02-03T03:21:26.404Z,4.00
2023-02-03T03:26:33.485Z,5.03
2023-02-03T03:31:37.285Z,4.70
2023-02-03T03:36:43.825Z,5.40
2023-02-03T03:41:55.682Z,5.03
2023-02-03T03:47:04.759Z,7.10
2023-02-03T03:52:10.473Z,6.10
2023-02-03T03:57:16.126Z,5.50
2023-02-03T04:02:20.222Z,5.27
2023-02-03T04:07:24.440Z,4.73
2023-02-03T04:12:30.416Z,5.63
2023-02-03T04:17:34.082Z,6.80
2023-02-03T04:22:38.235Z,7.73
2023-02-03T04:27:41.021Z,9.27
2023-02-03T04:32:43.801Z,7.90
2023-02-03T04:37:47.893Z,7.63
2023-02-03T04:42:50.789Z,8.77
2023-02-03T04:47:54.741Z,8.93
2023-02-03T04:53:00.447Z,7.37
2023-02-03T04:58:03.319Z,10.13
2023-02-03T05:03:06.089Z,9.67
2023-02-03T05:08:10.340Z,8.50
2023-02-03T05:13:13.108Z,8.10
2023-02-03T05:18:16.010Z,7.40
2023-02-03T05:23:20.108Z,9.50
2023-02-03T05:28:22.862Z,6.93
2023-02-03T05:33:25.652Z,6.83
2023-02-03T05:38:29.770Z,6.73
2023-02-03T05:43:32.488Z,8.93
2023-02-03T05:48:35.619Z,5.37
2023-02-03T05:53:39.710Z,4.73
2023-02-03T05:58:42.410Z,3.90
2023-02-03T06:03:46.309Z,9.30
2023-02-03T06:08:52.248Z,4.93
2023-02-03T06:13:55.228Z,5.43
2023-02-03T06:18:59.506Z,7.33
2023-02-03T06:24:03.768Z,6.37
2023-02-03T06:29:06.730Z,5.87
2023-02-03T06:34:10.103Z,4.50
2023-02-03T06:39:14.288Z,5.38
2023-02-03T06:44:17.006Z,5.13
2023-02-03T06:49:20.063Z,4.13
2023-02-03T06:54:24.200Z,3.77
2023-02-03T06:59:26.918Z,6.20
2023-02-03T07:04:30.148Z,4.00
2023-02-03T07:09:34.140Z,3.33
2023-02-03T07:14:39.498Z,3.63
2023-02-03T07:19:43.619Z,4.55
2023-02-03T07:24:49.247Z,3.58
2023-02-03T07:29:52.141Z,3.33
2023-02-03T07:34:54.867Z,3.25
2023-02-03T07:39:58.991Z,3.53
2023-02-03T07:45:01.881Z,3.70
2023-02-03T07:50:04.683Z,3.90
2023-02-03T07:55:09.940Z,5.80
2023-02-03T08:00:14.803Z,3.22
2023-02-03T08:05:18.403Z,6.95
2023-02-03T08:10:22.764Z,3.78
2023-02-03T08:15:25.799Z,4.88
2023-02-03T08:20:29.009Z,4.03
2023-02-03T08:25:33.401Z,4.07
2023-02-03T08:30:36.135Z,3.97
2023-02-03T08:35:40.054Z,4.53
2023-02-03T08:40:44.436Z,3.67
2023-02-03T08:45:47.351Z,2.17
2023-02-03T08:50:52.867Z,2.88
2023-02-03T08:55:57.252Z,2.78
2023-02-03T09:01:07.218Z,3.60
2023-02-03T09:06:11.729Z,3.35
2023-02-03T09:11:17.979Z,3.05
2023-02-03T09:16:22.847Z,2.28
2023-02-03T09:21:34.481Z,1.85
2023-02-03T09:26:48.039Z,2.85
2023-02-03T09:31:52.720Z,2.13
2023-02-03T09:36:55.752Z,2.40
2023-02-03T09:42:33.815Z,3.97
2023-02-03T09:47:38.793Z,2.53
2023-02-03T09:52:44.194Z,3.53
2023-02-03T09:57:51.439Z,2.65
2023-02-03T10:02:58.375Z,2.70
2023-02-03T10:08:08.975Z,3.22
2023-02-03T10:13:20.383Z,1.73
2023-02-03T10:18:26.012Z,2.28
2023-02-03T10:23:32.196Z,3.90
2023-02-03T10:28:40.727Z,2.42
2023-02-03T10:33:43.601Z,2.78
2023-02-03T10:38:54.219Z,3.28
2023-02-03T10:43:59.408Z,2.13
2023-02-03T10:49:02.487Z,1.48
2023-02-03T10:54:05.979Z,2.42
2023-02-03T10:59:29.249Z,3.25
2023-02-03T11:04:33.821Z,2.47
2023-02-03T11:09:38.357Z,3.70
2023-02-03T11:14:45.091Z,3.08
2023-02-03T11:19:48.751Z,1.50
2023-02-03T11:24:51.683Z,2.20
2023-02-03T11:30:09.227Z,2.00
2023-02-03T11:35:17.746Z,2.38
2023-02-03T11:40:26.455Z,2.90
2023-02-03T11:45:32.122Z,2.65
2023-02-03T11:50:39.628Z,3.00
2023-02-03T11:55:52.805Z,3.03
2023-02-03T12:01:03.075Z,2.78
2023-02-03T12:06:16.765Z,2.58
2023-02-03T12:11:26.494Z,3.97
2023-02-03T12:16:48.670Z,2.80
2023-02-03T12:21:54.966Z,2.97
2023-02-03T12:27:04.216Z,1.60
2023-02-03T12:32:17.098Z,1.83
2023-02-03T12:37:23.622Z,1.02
2023-02-03T12:42:30.857Z,1.58
2023-02-03T12:47:37.399Z,1.55
2023-02-03T12:52:43.367Z,1.48
2023-02-03T12:57:48.286Z,1.58
2023-02-03T13:03:03.553Z,1.92
2023-02-03T13:08:14.031Z,4.40
2023-02-03T13:13:22.527Z,1.55
2023-02-03T13:18:29.771Z,3.17
2023-02-03T13:23:32.687Z,5.35
2023-02-03T13:28:47.485Z,5.90
2023-02-03T13:34:12.316Z,4.68
2023-02-03T13:39:34.461Z,5.43
2023-02-03T13:44:38.768Z,7.00
2023-02-03T13:49:48.300Z,5.78
2023-02-03T13:54:51.238Z,8.50
2023-02-03T13:59:53.943Z,9.13
2023-02-03T14:04:59.451Z,4.07
2023-02-03T14:10:21.223Z,7.95
2023-02-03T14:15:31.166Z,7.83
2023-02-03T14:20:51.224Z,11.40
2023-02-03T14:25:56.664Z,3.93
2023-02-03T14:31:19.294Z,4.90
2023-02-03T14:36:44.906Z,5.67
2023-02-03T14:41:54.377Z,4.50
2023-02-03T14:47:06.213Z,7.60
2023-02-03T14:52:20.321Z,7.33
2023-02-03T14:57:32.800Z,7.47
2023-02-03T15:02:36.594Z,4.83
2023-02-03T15:07:44.895Z,9.33
2023-02-03T15:12:49.393Z,4.90
2023-02-03T15:17:53.440Z,12.03
2023-02-03T15:22:57.650Z,5.53
2023-02-03T15:28:16.303Z,9.87
2023-02-03T15:33:21.272Z,8.37
2023-02-03T15:38:30.013Z,8.90
2023-02-03T15:43:34.205Z,8.10
2023-02-03T15:48:39.573Z,7.27
2023-02-03T15:53:50.099Z,9.47
2023-02-03T15:58:52.878Z,9.77
2023-02-03T16:03:57.130Z,6.43
2023-02-03T16:09:01.580Z,7.47
2023-02-03T16:14:06.828Z,13.27
2023-02-03T16:19:14.452Z,11.00
2023-02-03T16:24:37.538Z,9.95
2023-02-03T16:29:58.003Z,9.53
2023-02-03T16:35:18.581Z,9.63
2023-02-03T16:40:41.835Z,10.43
2023-02-03T16:46:02.460Z,11.75
2023-02-03T16:51:08.236Z,10.85
2023-02-03T16:56:13.708Z,11.30
2023-02-03T17:01:16.559Z,6.60
2023-02-03T17:06:19.979Z,8.83
2023-02-03T17:11:24.642Z,10.23
2023-02-03T17:16:28.479Z,9.30
2023-02-03T17:21:31.451Z,8.75
2023-02-03T17:26:35.599Z,12.93
2023-02-03T17:31:38.344Z,10.52
2023-02-03T17:36:41.082Z,8.63
2023-02-03T17:56:50.276Z,9.75
2023-02-03T18:01:54.158Z,11.20
2023-02-03T18:06:58.228Z,11.85
2023-02-03T18:12:01.005Z,7.60
2023-02-03T18:17:03.825Z,10.90
2023-02-03T18:22:08.389Z,9.97
2023-02-03T18:27:16.601Z,8.23
2023-02-03T18:32:19.953Z,7.60
2023-02-03T18:37:24.287Z,8.00
2023-02-03T18:42:27.373Z,11.77
2023-02-03T18:47:30.242Z,9.90
2023-02-03T18:52:34.411Z,9.13
2023-02-03T18:57:37.665Z,10.13
2023-02-03T19:02:40.801Z,7.15
2023-02-03T19:07:45.083Z,10.57
2023-02-03T19:12:48.134Z,9.67
2023-02-03T19:17:50.962Z,11.07
2023-02-03T19:22:56.683Z,13.07
2023-02-03T19:27:59.558Z,7.53
2023-02-03T19:33:02.322Z,16.37
2023-02-03T19:38:06.989Z,12.47
2023-02-03T19:43:09.830Z,10.30
2023-02-03T19:48:12.973Z,13.50
2023-02-03T19:53:18.258Z,14.80
2023-02-03T19:58:21.161Z,11.03
2023-02-03T20:03:24.474Z,15.97
2023-02-03T20:08:29.116Z,8.38
2023-02-03T20:13:32.169Z,14.85
2023-02-03T20:18:34.893Z,9.88
2023-02-03T20:23:38.984Z,9.63
2023-02-03T20:28:41.732Z,10.18
2023-02-03T20:33:44.686Z,10.53
2023-02-03T20:38:49.189Z,9.23
2023-02-03T20:43:52.322Z,10.07
2023-02-03T20:48:55.989Z,11.88
2023-02-03T20:54:00.114Z,10.40
2023-02-03T20:59:02.828Z,9.77
2023-02-03T21:04:26.266Z,11.63
2023-02-03T21:09:30.573Z,11.82
2023-02-03T21:14:37.270Z,12.90
2023-02-03T21:19:41.386Z,11.10
2023-02-03T21:24:48.284Z,6.17
2023-02-03T21:29:55.583Z,9.97
2023-02-03T21:34:58.536Z,6.00
2023-02-03T21:40:02.650Z,12.43
2023-02-03T21:45:24.219Z,6.30
2023-02-03T21:50:32.308Z,13.50
2023-02-03T21:55:37.130Z,9.77
2023-02-03T22:00:43.322Z,14.97
2023-02-03T22:05:46.140Z,8.68
2023-02-03T22:10:50.718Z,10.60
2023-02-03T22:15:53.706Z,8.63
2023-02-03T22:20:56.840Z,9.23
2023-02-03T22:26:01.271Z,10.00
2023-02-03T22:31:05.213Z,11.07
2023-02-03T22:36:09.067Z,7.57
2023-02-03T22:41:13.761Z,8.88
2023-02-03T22:46:20.089Z,9.27
2023-02-03T22:51:22.890Z,9.23
2023-02-03T22:56:27.000Z,9.27
2023-02-03T23:01:29.756Z,5.27
2023-02-03T23:06:32.881Z,12.07
2023-02-03T23:11:36.971Z,5.37
2023-02-03T23:16:39.697Z,8.63
2023-02-03T23:21:42.516Z,5.93
2023-02-03T23:26:46.587Z,9.97
2023-02-03T23:31:49.644Z,9.03
2023-02-03T23:36:52.369Z,9.70
2023-02-03T23:41:56.512Z,6.73
2023-02-03T23:46:59.200Z,4.23
2023-02-03T23:52:01.952Z,6.17
2023-02-03T23:57:06.298Z,2.50
